sensor_id;sensor_type;location;lat;lon;timestamp;temperature;humidity
16060;DHT22;8134;49.552;7.632;2023-09-19T00:00:37;19.10;99.90
16060;DHT22;8134;49.552;7.632;2023-09-19T00:03:03;19.10;99.90
16060;DHT22;8134;49.552;7.632;2023-09-19T00:05:33;19.10;99.90
16060;DHT22;8134;49.552;7.632;2023-09-19T00:08:01;19.00;99.90
16060;DHT22;8134;49.552;7.632;2023-09-19T00:10:31;18.90;99.90
16060;DHT22;8134;49.552;7.632;2023-09-19T00:13:00;18.90;99.90
16060;DHT22;8134;49.552;7.632;2023-09-19T00:15:30;18.80;99.90
16060;DHT22;8134;49.552;7.632;2023-09-19T00:17:56;18.80;99.90
16060;DHT22;8134;49.552;7.632;2023-09-19T00:20:22;18.80;99.90
16060;DHT22;8134;49.552;7.632;2023-09-19T00:22:48;18.80;99.90
16060;DHT22;8134;49.552;7.632;2023-09-19T00:25:17;18.80;99.90
16060;DHT22;8134;49.552;7.632;2023-09-19T00:27:43;18.80;99.90
16060;DHT22;8134;49.552;7.632;2023-09-19T00:30:10;18.90;99.90
16060;DHT22;8134;49.552;7.632;2023-09-19T00:32:41;18.90;99.90
16060;DHT22;8134;49.552;7.632;2023-09-19T00:35:08;18.80;99.90
16060;DHT22;8134;49.552;7.632;2023-09-19T00:37:37;18.90;99.90
16060;DHT22;8134;49.552;7.632;2023-09-19T00:40:05;18.90;99.90
16060;DHT22;8134;49.552;7.632;2023-09-19T00:42:31;18.90;99.90
16060;DHT22;8134;49.552;7.632;2023-09-19T00:44:57;18.90;99.90
16060;DHT22;8134;49.552;7.632;2023-09-19T00:47:24;18.90;99.90
16060;DHT22;8134;49.552;7.632;2023-09-19T00:49:50;18.90;99.90
16060;DHT22;8134;49.552;7.632;2023-09-19T00:52:18;18.80;99.90
16060;DHT22;8134;49.552;7.632;2023-09-19T00:54:48;18.80;99.90
16060;DHT22;8134;49.552;7.632;2023-09-19T00:57:15;18.80;99.90
16060;DHT22;8134;49.552;7.632;2023-09-19T00:59:45;18.80;99.90
16060;DHT22;8134;49.552;7.632;2023-09-19T01:02:14;18.80;99.90
16060;DHT22;8134;49.552;7.632;2023-09-19T01:04:40;18.80;99.90
16060;DHT22;8134;49.552;7.632;2023-09-19T01:07:07;18.80;99.90
16060;DHT22;8134;49.552;7.632;2023-09-19T01:09:33;18.80;99.90
16060;DHT22;8134;49.552;7.632;2023-09-19T01:12:01;18.80;99.90
16060;DHT22;8134;49.552;7.632;2023-09-19T01:14:31;18.80;99.90
16060;DHT22;8134;49.552;7.632;2023-09-19T01:17:07;18.80;99.90
16060;DHT22;8134;49.552;7.632;2023-09-19T01:22:25;18.80;99.90
16060;DHT22;8134;49.552;7.632;2023-09-19T01:30:21;18.80;99.90
16060;DHT22;8134;49.552;7.632;2023-09-19T01:32:50;18.80;99.90
16060;DHT22;8134;49.552;7.632;2023-09-19T01:35:17;18.80;99.90
16060;DHT22;8134;49.552;7.632;2023-09-19T01:37:44;18.70;99.90
16060;DHT22;8134;49.552;7.632;2023-09-19T01:40:15;18.70;99.90
16060;DHT22;8134;49.552;7.632;2023-09-19T01:45:36;18.60;99.90
16060;DHT22;8134;49.552;7.632;2023-09-19T01:48:05;18.60;99.90
16060;DHT22;8134;49.552;7.632;2023-09-19T01:50:41;18.60;99.90
16060;DHT22;8134;49.552;7.632;2023-09-19T01:55:56;18.60;99.90
16060;DHT22;8134;49.552;7.632;2023-09-19T02:01:04;18.50;99.90
16060;DHT22;8134;49.552;7.632;2023-09-19T02:03:31;18.50;99.90
16060;DHT22;8134;49.552;7.632;2023-09-19T02:05:57;18.40;99.90
16060;DHT22;8134;49.552;7.632;2023-09-19T02:08:22;18.40;99.90
16060;DHT22;8134;49.552;7.632;2023-09-19T02:10:49;18.40;99.90
16060;DHT22;8134;49.552;7.632;2023-09-19T02:13:21;18.30;99.90
16060;DHT22;8134;49.552;7.632;2023-09-19T02:15:47;18.30;99.90
16060;DHT22;8134;49.552;7.632;2023-09-19T02:18:13;18.20;99.90
16060;DHT22;8134;49.552;7.632;2023-09-19T02:20:39;18.20;99.90
16060;DHT22;8134;49.552;7.632;2023-09-19T02:23:05;18.20;99.90
16060;DHT22;8134;49.552;7.632;2023-09-19T02:25:30;18.10;99.90
16060;DHT22;8134;49.552;7.632;2023-09-19T02:27:57;18.10;99.90
16060;DHT22;8134;49.552;7.632;2023-09-19T02:30:24;18.10;99.90
16060;DHT22;8134;49.552;7.632;2023-09-19T02:32:50;18.20;99.90
16060;DHT22;8134;49.552;7.632;2023-09-19T02:35:16;18.20;99.90
16060;DHT22;8134;49.552;7.632;2023-09-19T02:37:41;18.20;99.90
16060;DHT22;8134;49.552;7.632;2023-09-19T02:40:07;18.30;99.90
16060;DHT22;8134;49.552;7.632;2023-09-19T02:42:52;18.30;99.90
16060;DHT22;8134;49.552;7.632;2023-09-19T02:45:18;18.30;99.90
16060;DHT22;8134;49.552;7.632;2023-09-19T02:47:45;18.30;99.90
16060;DHT22;8134;49.552;7.632;2023-09-19T02:50:11;18.30;99.90
16060;DHT22;8134;49.552;7.632;2023-09-19T02:52:36;18.30;99.90
16060;DHT22;8134;49.552;7.632;2023-09-19T02:55:03;18.30;99.90
16060;DHT22;8134;49.552;7.632;2023-09-19T02:57:31;18.20;99.90
16060;DHT22;8134;49.552;7.632;2023-09-19T02:59:59;18.20;99.90
16060;DHT22;8134;49.552;7.632;2023-09-19T03:02:26;18.10;99.90
16060;DHT22;8134;49.552;7.632;2023-09-19T03:04:53;18.10;99.90
16060;DHT22;8134;49.552;7.632;2023-09-19T03:07:19;18.00;99.90
16060;DHT22;8134;49.552;7.632;2023-09-19T03:09:44;17.90;99.90
16060;DHT22;8134;49.552;7.632;2023-09-19T03:12:10;17.90;99.90
16060;DHT22;8134;49.552;7.632;2023-09-19T03:14:36;17.90;99.90
16060;DHT22;8134;49.552;7.632;2023-09-19T03:17:01;17.90;99.90
16060;DHT22;8134;49.552;7.632;2023-09-19T03:19:30;17.90;99.90
16060;DHT22;8134;49.552;7.632;2023-09-19T03:21:58;17.80;99.90
16060;DHT22;8134;49.552;7.632;2023-09-19T03:24:24;17.80;99.90
16060;DHT22;8134;49.552;7.632;2023-09-19T03:26:49;17.80;99.90
16060;DHT22;8134;49.552;7.632;2023-09-19T03:29:15;17.70;99.90
16060;DHT22;8134;49.552;7.632;2023-09-19T03:31:42;17.70;99.90
16060;DHT22;8134;49.552;7.632;2023-09-19T03:34:08;17.70;99.90
16060;DHT22;8134;49.552;7.632;2023-09-19T03:36:34;17.70;99.90
16060;DHT22;8134;49.552;7.632;2023-09-19T03:39:00;17.70;99.90
16060;DHT22;8134;49.552;7.632;2023-09-19T03:41:25;17.70;99.90
16060;DHT22;8134;49.552;7.632;2023-09-19T03:43:51;17.70;99.90
16060;DHT22;8134;49.552;7.632;2023-09-19T03:46:16;17.70;99.90
16060;DHT22;8134;49.552;7.632;2023-09-19T03:48:42;17.60;99.90
16060;DHT22;8134;49.552;7.632;2023-09-19T03:51:08;17.60;99.90
16060;DHT22;8134;49.552;7.632;2023-09-19T03:53:33;17.60;99.90
16060;DHT22;8134;49.552;7.632;2023-09-19T03:55:59;17.60;99.90
16060;DHT22;8134;49.552;7.632;2023-09-19T03:58:25;17.70;99.90
16060;DHT22;8134;49.552;7.632;2023-09-19T04:00:54;17.60;99.90
16060;DHT22;8134;49.552;7.632;2023-09-19T04:03:20;17.60;99.90
16060;DHT22;8134;49.552;7.632;2023-09-19T04:05:46;17.60;99.90
16060;DHT22;8134;49.552;7.632;2023-09-19T04:08:13;17.60;99.90
16060;DHT22;8134;49.552;7.632;2023-09-19T04:10:41;17.60;99.90
16060;DHT22;8134;49.552;7.632;2023-09-19T04:13:07;17.60;99.90
16060;DHT22;8134;49.552;7.632;2023-09-19T04:15:33;17.60;99.90
16060;DHT22;8134;49.552;7.632;2023-09-19T04:17:58;17.50;99.90
16060;DHT22;8134;49.552;7.632;2023-09-19T04:20:23;17.50;99.90
16060;DHT22;8134;49.552;7.632;2023-09-19T04:22:49;17.50;99.90
16060;DHT22;8134;49.552;7.632;2023-09-19T04:25:15;17.50;99.90
16060;DHT22;8134;49.552;7.632;2023-09-19T04:27:40;17.50;99.90
16060;DHT22;8134;49.552;7.632;2023-09-19T04:30:09;17.50;99.90
16060;DHT22;8134;49.552;7.632;2023-09-19T04:32:36;17.50;99.90
16060;DHT22;8134;49.552;7.632;2023-09-19T04:35:05;17.50;99.90
16060;DHT22;8134;49.552;7.632;2023-09-19T04:37:33;17.50;99.90
16060;DHT22;8134;49.552;7.632;2023-09-19T04:39:58;17.40;99.90
16060;DHT22;8134;49.552;7.632;2023-09-19T04:42:24;17.40;99.90
16060;DHT22;8134;49.552;7.632;2023-09-19T04:44:50;17.40;99.90
16060;DHT22;8134;49.552;7.632;2023-09-19T04:47:18;17.40;99.90
16060;DHT22;8134;49.552;7.632;2023-09-19T04:49:43;17.50;99.90
16060;DHT22;8134;49.552;7.632;2023-09-19T04:52:09;17.50;99.90
16060;DHT22;8134;49.552;7.632;2023-09-19T04:54:34;17.50;99.90
16060;DHT22;8134;49.552;7.632;2023-09-19T04:56:59;17.50;99.90
16060;DHT22;8134;49.552;7.632;2023-09-19T04:59:28;17.50;99.90
16060;DHT22;8134;49.552;7.632;2023-09-19T05:01:53;17.50;99.90
16060;DHT22;8134;49.552;7.632;2023-09-19T05:04:19;17.50;99.90
16060;DHT22;8134;49.552;7.632;2023-09-19T05:06:44;17.50;99.90
16060;DHT22;8134;49.552;7.632;2023-09-19T05:09:10;17.50;99.90
16060;DHT22;8134;49.552;7.632;2023-09-19T05:11:35;17.50;99.90
16060;DHT22;8134;49.552;7.632;2023-09-19T05:14:03;17.50;99.90
16060;DHT22;8134;49.552;7.632;2023-09-19T05:16:29;17.40;99.90
16060;DHT22;8134;49.552;7.632;2023-09-19T05:18:57;17.40;99.90
16060;DHT22;8134;49.552;7.632;2023-09-19T05:21:23;17.40;99.90
16060;DHT22;8134;49.552;7.632;2023-09-19T05:23:51;17.50;99.90
16060;DHT22;8134;49.552;7.632;2023-09-19T05:26:16;17.40;99.90
16060;DHT22;8134;49.552;7.632;2023-09-19T05:28:43;17.40;99.90
16060;DHT22;8134;49.552;7.632;2023-09-19T05:31:08;17.40;99.90
16060;DHT22;8134;49.552;7.632;2023-09-19T05:33:34;17.40;99.90
16060;DHT22;8134;49.552;7.632;2023-09-19T05:35:59;17.40;99.90
16060;DHT22;8134;49.552;7.632;2023-09-19T05:38:25;17.40;99.90
16060;DHT22;8134;49.552;7.632;2023-09-19T05:40:51;17.30;99.90
16060;DHT22;8134;49.552;7.632;2023-09-19T05:43:17;17.30;99.90
16060;DHT22;8134;49.552;7.632;2023-09-19T05:45:43;17.30;99.90
16060;DHT22;8134;49.552;7.632;2023-09-19T05:48:13;17.30;99.90
16060;DHT22;8134;49.552;7.632;2023-09-19T05:50:39;17.30;99.90
16060;DHT22;8134;49.552;7.632;2023-09-19T05:53:05;17.30;99.90
16060;DHT22;8134;49.552;7.632;2023-09-19T05:55:31;17.40;99.90
16060;DHT22;8134;49.552;7.632;2023-09-19T05:57:56;17.30;99.90
16060;DHT22;8134;49.552;7.632;2023-09-19T06:00:22;17.40;99.90
16060;DHT22;8134;49.552;7.632;2023-09-19T06:02:51;17.40;99.90
16060;DHT22;8134;49.552;7.632;2023-09-19T06:05:17;17.40;99.90
16060;DHT22;8134;49.552;7.632;2023-09-19T06:07:43;17.40;99.90
16060;DHT22;8134;49.552;7.632;2023-09-19T06:10:09;17.30;99.90
16060;DHT22;8134;49.552;7.632;2023-09-19T06:12:38;17.30;99.90
16060;DHT22;8134;49.552;7.632;2023-09-19T06:15:04;17.30;99.90
16060;DHT22;8134;49.552;7.632;2023-09-19T06:17:34;17.30;99.90
16060;DHT22;8134;49.552;7.632;2023-09-19T06:20:04;17.20;99.90
16060;DHT22;8134;49.552;7.632;2023-09-19T06:22:30;17.20;99.90
16060;DHT22;8134;49.552;7.632;2023-09-19T06:24:55;17.20;99.90
16060;DHT22;8134;49.552;7.632;2023-09-19T06:27:21;17.30;99.90
16060;DHT22;8134;49.552;7.632;2023-09-19T06:29:47;17.30;99.90
16060;DHT22;8134;49.552;7.632;2023-09-19T06:32:12;17.30;99.90
16060;DHT22;8134;49.552;7.632;2023-09-19T06:34:38;17.30;99.90
16060;DHT22;8134;49.552;7.632;2023-09-19T06:37:04;17.30;99.90
16060;DHT22;8134;49.552;7.632;2023-09-19T06:39:31;17.30;99.90
16060;DHT22;8134;49.552;7.632;2023-09-19T06:41:56;17.40;99.90
16060;DHT22;8134;49.552;7.632;2023-09-19T06:44:22;17.40;99.90
16060;DHT22;8134;49.552;7.632;2023-09-19T06:46:50;17.40;99.90
16060;DHT22;8134;49.552;7.632;2023-09-19T06:49:17;17.40;99.90
16060;DHT22;8134;49.552;7.632;2023-09-19T06:51:42;17.40;99.90
16060;DHT22;8134;49.552;7.632;2023-09-19T06:54:09;17.30;99.90
16060;DHT22;8134;49.552;7.632;2023-09-19T06:56:35;17.30;99.90
16060;DHT22;8134;49.552;7.632;2023-09-19T06:59:00;17.30;99.90
16060;DHT22;8134;49.552;7.632;2023-09-19T07:01:27;17.30;99.90
16060;DHT22;8134;49.552;7.632;2023-09-19T07:03:53;17.30;99.90
16060;DHT22;8134;49.552;7.632;2023-09-19T07:06:19;17.40;99.90
16060;DHT22;8134;49.552;7.632;2023-09-19T07:08:44;17.40;99.90
16060;DHT22;8134;49.552;7.632;2023-09-19T07:11:10;17.40;99.90
16060;DHT22;8134;49.552;7.632;2023-09-19T07:13:37;17.40;99.90
16060;DHT22;8134;49.552;7.632;2023-09-19T07:16:03;17.40;99.90
16060;DHT22;8134;49.552;7.632;2023-09-19T07:18:29;17.50;99.90
16060;DHT22;8134;49.552;7.632;2023-09-19T07:20:58;17.50;99.90
16060;DHT22;8134;49.552;7.632;2023-09-19T07:23:30;17.50;99.90
16060;DHT22;8134;49.552;7.632;2023-09-19T07:26:00;17.50;99.90
16060;DHT22;8134;49.552;7.632;2023-09-19T07:28:26;17.50;99.90
16060;DHT22;8134;49.552;7.632;2023-09-19T07:30:52;17.50;99.90
16060;DHT22;8134;49.552;7.632;2023-09-19T07:33:18;17.50;99.90
16060;DHT22;8134;49.552;7.632;2023-09-19T07:35:46;17.50;99.90
16060;DHT22;8134;49.552;7.632;2023-09-19T07:38:12;17.50;99.90
16060;DHT22;8134;49.552;7.632;2023-09-19T07:40:38;17.50;99.90
16060;DHT22;8134;49.552;7.632;2023-09-19T07:43:03;17.50;99.90
16060;DHT22;8134;49.552;7.632;2023-09-19T07:45:33;17.50;99.90
16060;DHT22;8134;49.552;7.632;2023-09-19T07:47:58;17.60;99.90
16060;DHT22;8134;49.552;7.632;2023-09-19T07:50:26;17.60;99.90
16060;DHT22;8134;49.552;7.632;2023-09-19T07:52:52;17.60;99.90
16060;DHT22;8134;49.552;7.632;2023-09-19T07:55:18;17.60;99.90
16060;DHT22;8134;49.552;7.632;2023-09-19T07:57:45;17.60;99.90
16060;DHT22;8134;49.552;7.632;2023-09-19T08:00:11;17.50;99.90
16060;DHT22;8134;49.552;7.632;2023-09-19T08:02:37;17.40;99.90
16060;DHT22;8134;49.552;7.632;2023-09-19T08:05:09;17.50;99.90
16060;DHT22;8134;49.552;7.632;2023-09-19T08:07:41;17.50;99.90
16060;DHT22;8134;49.552;7.632;2023-09-19T08:10:07;17.40;99.90
16060;DHT22;8134;49.552;7.632;2023-09-19T08:12:33;17.50;99.90
16060;DHT22;8134;49.552;7.632;2023-09-19T08:15:01;17.50;99.90
16060;DHT22;8134;49.552;7.632;2023-09-19T08:17:27;17.50;99.90
16060;DHT22;8134;49.552;7.632;2023-09-19T08:19:52;17.40;99.90
16060;DHT22;8134;49.552;7.632;2023-09-19T08:22:19;17.40;99.90
16060;DHT22;8134;49.552;7.632;2023-09-19T08:24:44;17.40;99.90
16060;DHT22;8134;49.552;7.632;2023-09-19T08:27:10;17.40;99.90
16060;DHT22;8134;49.552;7.632;2023-09-19T08:29:37;17.40;99.90
16060;DHT22;8134;49.552;7.632;2023-09-19T08:32:04;17.40;99.90
16060;DHT22;8134;49.552;7.632;2023-09-19T08:34:29;17.30;99.90
16060;DHT22;8134;49.552;7.632;2023-09-19T08:36:57;17.30;99.90
16060;DHT22;8134;49.552;7.632;2023-09-19T08:39:23;17.30;99.90
16060;DHT22;8134;49.552;7.632;2023-09-19T08:41:49;17.30;99.90
16060;DHT22;8134;49.552;7.632;2023-09-19T08:44:15;17.40;99.90
16060;DHT22;8134;49.552;7.632;2023-09-19T08:46:43;17.50;99.90
16060;DHT22;8134;49.552;7.632;2023-09-19T08:49:14;17.50;99.90
16060;DHT22;8134;49.552;7.632;2023-09-19T08:51:43;17.60;99.90
16060;DHT22;8134;49.552;7.632;2023-09-19T08:54:21;17.60;99.90
16060;DHT22;8134;49.552;7.632;2023-09-19T08:56:51;17.50;99.90
16060;DHT22;8134;49.552;7.632;2023-09-19T08:59:20;17.60;99.90
16060;DHT22;8134;49.552;7.632;2023-09-19T09:01:49;17.60;99.90
16060;DHT22;8134;49.552;7.632;2023-09-19T09:04:19;17.60;99.90
16060;DHT22;8134;49.552;7.632;2023-09-19T09:06:45;17.70;99.90
16060;DHT22;8134;49.552;7.632;2023-09-19T09:09:14;17.70;99.90
16060;DHT22;8134;49.552;7.632;2023-09-19T09:11:40;17.70;99.90
16060;DHT22;8134;49.552;7.632;2023-09-19T09:14:06;17.70;99.90
16060;DHT22;8134;49.552;7.632;2023-09-19T09:16:34;17.70;99.90
16060;DHT22;8134;49.552;7.632;2023-09-19T09:19:00;17.70;99.90
16060;DHT22;8134;49.552;7.632;2023-09-19T09:21:25;17.70;99.90
16060;DHT22;8134;49.552;7.632;2023-09-19T09:23:51;17.70;99.90
16060;DHT22;8134;49.552;7.632;2023-09-19T09:26:17;17.70;99.90
16060;DHT22;8134;49.552;7.632;2023-09-19T09:28:49;17.70;99.90
16060;DHT22;8134;49.552;7.632;2023-09-19T09:31:24;17.80;99.90
16060;DHT22;8134;49.552;7.632;2023-09-19T09:33:53;17.80;99.90
16060;DHT22;8134;49.552;7.632;2023-09-19T09:36:33;17.90;99.90
16060;DHT22;8134;49.552;7.632;2023-09-19T09:38:59;18.00;99.90
16060;DHT22;8134;49.552;7.632;2023-09-19T09:41:35;18.10;99.90
16060;DHT22;8134;49.552;7.632;2023-09-19T09:44:15;18.20;99.90
16060;DHT22;8134;49.552;7.632;2023-09-19T09:46:46;18.20;99.90
16060;DHT22;8134;49.552;7.632;2023-09-19T09:49:24;18.30;99.90
16060;DHT22;8134;49.552;7.632;2023-09-19T09:52:05;18.30;99.90
16060;DHT22;8134;49.552;7.632;2023-09-19T09:54:58;18.40;99.90
16060;DHT22;8134;49.552;7.632;2023-09-19T09:57:23;18.40;99.90
16060;DHT22;8134;49.552;7.632;2023-09-19T09:59:52;18.50;99.90
16060;DHT22;8134;49.552;7.632;2023-09-19T10:02:27;18.50;99.90
16060;DHT22;8134;49.552;7.632;2023-09-19T10:07:49;18.50;99.90
16060;DHT22;8134;49.552;7.632;2023-09-19T10:10:41;18.60;99.90
16060;DHT22;8134;49.552;7.632;2023-09-19T10:13:07;18.60;99.90
16060;DHT22;8134;49.552;7.632;2023-09-19T10:15:37;18.60;99.90
16060;DHT22;8134;49.552;7.632;2023-09-19T10:18:04;18.70;99.90
16060;DHT22;8134;49.552;7.632;2023-09-19T10:20:30;18.70;99.90
16060;DHT22;8134;49.552;7.632;2023-09-19T10:22:55;18.70;99.90
16060;DHT22;8134;49.552;7.632;2023-09-19T10:25:27;18.70;99.90
16060;DHT22;8134;49.552;7.632;2023-09-19T10:27:57;18.70;99.90
16060;DHT22;8134;49.552;7.632;2023-09-19T10:30:25;18.80;99.90
16060;DHT22;8134;49.552;7.632;2023-09-19T10:32:55;18.80;99.90
16060;DHT22;8134;49.552;7.632;2023-09-19T10:35:22;18.90;99.90
16060;DHT22;8134;49.552;7.632;2023-09-19T10:37:49;18.90;99.90
16060;DHT22;8134;49.552;7.632;2023-09-19T10:40:15;19.00;99.90
16060;DHT22;8134;49.552;7.632;2023-09-19T10:42:42;19.00;99.90
16060;DHT22;8134;49.552;7.632;2023-09-19T10:45:09;19.00;99.90
16060;DHT22;8134;49.552;7.632;2023-09-19T10:47:38;19.10;99.90
16060;DHT22;8134;49.552;7.632;2023-09-19T10:50:05;19.10;99.90
16060;DHT22;8134;49.552;7.632;2023-09-19T10:52:37;19.10;99.90
16060;DHT22;8134;49.552;7.632;2023-09-19T10:55:04;19.20;99.90
16060;DHT22;8134;49.552;7.632;2023-09-19T10:57:31;19.20;99.90
16060;DHT22;8134;49.552;7.632;2023-09-19T11:02:29;19.20;99.90
16060;DHT22;8134;49.552;7.632;2023-09-19T11:04:54;19.20;99.90
16060;DHT22;8134;49.552;7.632;2023-09-19T11:07:56;19.20;99.90
16060;DHT22;8134;49.552;7.632;2023-09-19T11:13:26;19.40;99.90
16060;DHT22;8134;49.552;7.632;2023-09-19T11:26:45;19.80;99.90
16060;DHT22;8134;49.552;7.632;2023-09-19T11:29:29;19.80;99.90
16060;DHT22;8134;49.552;7.632;2023-09-19T11:31:55;20.00;99.90
16060;DHT22;8134;49.552;7.632;2023-09-19T11:52:01;20.40;99.90
16060;DHT22;8134;49.552;7.632;2023-09-19T11:54:31;20.50;99.90
16060;DHT22;8134;49.552;7.632;2023-09-19T11:57:02;20.50;99.90
16060;DHT22;8134;49.552;7.632;2023-09-19T11:59:29;20.50;99.90
16060;DHT22;8134;49.552;7.632;2023-09-19T12:04:42;20.70;99.90
16060;DHT22;8134;49.552;7.632;2023-09-19T12:07:16;20.80;99.90
16060;DHT22;8134;49.552;7.632;2023-09-19T12:12:29;20.70;99.90
16060;DHT22;8134;49.552;7.632;2023-09-19T12:14:59;20.80;99.90
16060;DHT22;8134;49.552;7.632;2023-09-19T12:17:40;20.90;99.90
16060;DHT22;8134;49.552;7.632;2023-09-19T12:20:10;21.00;99.90
16060;DHT22;8134;49.552;7.632;2023-09-19T12:22:39;21.10;99.90
16060;DHT22;8134;49.552;7.632;2023-09-19T12:25:08;21.20;99.90
16060;DHT22;8134;49.552;7.632;2023-09-19T12:27:42;21.30;99.90
16060;DHT22;8134;49.552;7.632;2023-09-19T12:30:09;21.30;99.90
16060;DHT22;8134;49.552;7.632;2023-09-19T12:32:35;21.30;99.90
16060;DHT22;8134;49.552;7.632;2023-09-19T12:35:01;21.30;99.90
16060;DHT22;8134;49.552;7.632;2023-09-19T12:37:32;21.40;99.90
16060;DHT22;8134;49.552;7.632;2023-09-19T12:40:08;21.50;99.90
16060;DHT22;8134;49.552;7.632;2023-09-19T12:42:46;21.50;99.90
16060;DHT22;8134;49.552;7.632;2023-09-19T12:45:15;21.60;99.90
16060;DHT22;8134;49.552;7.632;2023-09-19T12:50:58;21.60;99.90
16060;DHT22;8134;49.552;7.632;2023-09-19T12:53:26;21.60;99.90
16060;DHT22;8134;49.552;7.632;2023-09-19T12:55:59;21.70;99.80
16060;DHT22;8134;49.552;7.632;2023-09-19T12:58:28;21.80;99.90
16060;DHT22;8134;49.552;7.632;2023-09-19T13:00:56;21.80;98.90
16060;DHT22;8134;49.552;7.632;2023-09-19T13:03:26;21.70;98.50
16060;DHT22;8134;49.552;7.632;2023-09-19T13:08:38;21.70;98.70
16060;DHT22;8134;49.552;7.632;2023-09-19T13:27:48;22.00;98.80
16060;DHT22;8134;49.552;7.632;2023-09-19T13:30:17;22.10;98.70
16060;DHT22;8134;49.552;7.632;2023-09-19T13:32:44;22.10;99.90
16060;DHT22;8134;49.552;7.632;2023-09-19T13:35:12;22.20;98.90
16060;DHT22;8134;49.552;7.632;2023-09-19T13:37:39;22.20;98.10
16060;DHT22;8134;49.552;7.632;2023-09-19T13:40:12;22.30;98.20
16060;DHT22;8134;49.552;7.632;2023-09-19T13:42:39;22.40;98.20
16060;DHT22;8134;49.552;7.632;2023-09-19T13:45:08;22.40;97.30
16060;DHT22;8134;49.552;7.632;2023-09-19T13:47:38;22.40;96.90
16060;DHT22;8134;49.552;7.632;2023-09-19T13:50:04;22.40;97.40
16060;DHT22;8134;49.552;7.632;2023-09-19T13:52:37;22.30;97.00
16060;DHT22;8134;49.552;7.632;2023-09-19T13:55:04;22.30;97.10
16060;DHT22;8134;49.552;7.632;2023-09-19T13:57:32;22.30;96.60
16060;DHT22;8134;49.552;7.632;2023-09-19T13:59:59;22.30;96.50
16060;DHT22;8134;49.552;7.632;2023-09-19T14:02:27;22.30;98.60
16060;DHT22;8134;49.552;7.632;2023-09-19T14:04:54;22.40;97.40
16060;DHT22;8134;49.552;7.632;2023-09-19T14:07:23;22.40;97.90
16060;DHT22;8134;49.552;7.632;2023-09-19T14:09:51;22.50;97.40
16060;DHT22;8134;49.552;7.632;2023-09-19T14:12:18;22.70;97.00
16060;DHT22;8134;49.552;7.632;2023-09-19T14:14:45;22.80;97.00
16060;DHT22;8134;49.552;7.632;2023-09-19T14:17:15;22.80;97.60
16060;DHT22;8134;49.552;7.632;2023-09-19T14:19:45;22.80;97.30
16060;DHT22;8134;49.552;7.632;2023-09-19T14:22:15;22.70;98.30
16060;DHT22;8134;49.552;7.632;2023-09-19T14:24:45;22.70;98.60
16060;DHT22;8134;49.552;7.632;2023-09-19T14:27:12;22.70;97.50
16060;DHT22;8134;49.552;7.632;2023-09-19T14:29:40;22.80;97.70
16060;DHT22;8134;49.552;7.632;2023-09-19T14:32:08;22.90;97.60
16060;DHT22;8134;49.552;7.632;2023-09-19T14:34:35;22.90;97.40
16060;DHT22;8134;49.552;7.632;2023-09-19T14:37:07;22.80;97.10
16060;DHT22;8134;49.552;7.632;2023-09-19T14:39:37;22.70;97.80
16060;DHT22;8134;49.552;7.632;2023-09-19T14:51:14;22.30;98.70
16060;DHT22;8134;49.552;7.632;2023-09-19T14:53:42;22.40;98.70
16060;DHT22;8134;49.552;7.632;2023-09-19T14:56:10;22.40;98.70
16060;DHT22;8134;49.552;7.632;2023-09-19T14:58:37;22.40;99.30
16060;DHT22;8134;49.552;7.632;2023-09-19T15:01:12;22.30;99.60
16060;DHT22;8134;49.552;7.632;2023-09-19T15:03:39;22.30;98.80
16060;DHT22;8134;49.552;7.632;2023-09-19T15:06:07;22.40;99.50
16060;DHT22;8134;49.552;7.632;2023-09-19T15:08:45;22.40;98.50
16060;DHT22;8134;49.552;7.632;2023-09-19T15:11:23;22.40;98.80
16060;DHT22;8134;49.552;7.632;2023-09-19T15:13:51;22.30;99.00
16060;DHT22;8134;49.552;7.632;2023-09-19T15:16:18;22.20;98.70
16060;DHT22;8134;49.552;7.632;2023-09-19T15:18:48;22.40;99.30
16060;DHT22;8134;49.552;7.632;2023-09-19T15:21:17;22.50;99.90
16060;DHT22;8134;49.552;7.632;2023-09-19T15:23:45;22.50;98.30
16060;DHT22;8134;49.552;7.632;2023-09-19T15:26:14;22.50;98.40
16060;DHT22;8134;49.552;7.632;2023-09-19T15:28:45;22.40;99.10
16060;DHT22;8134;49.552;7.632;2023-09-19T15:31:13;22.50;99.90
16060;DHT22;8134;49.552;7.632;2023-09-19T15:33:41;22.50;99.80
16060;DHT22;8134;49.552;7.632;2023-09-19T15:36:10;22.60;99.90
16060;DHT22;8134;49.552;7.632;2023-09-19T15:41:29;22.60;99.20
16060;DHT22;8134;49.552;7.632;2023-09-19T15:44:11;22.60;97.80
16060;DHT22;8134;49.552;7.632;2023-09-19T15:46:48;22.60;97.50
16060;DHT22;8134;49.552;7.632;2023-09-19T15:49:26;22.80;98.10
16060;DHT22;8134;49.552;7.632;2023-09-19T15:51:57;22.70;96.90
16060;DHT22;8134;49.552;7.632;2023-09-19T15:54:54;22.60;97.60
16060;DHT22;8134;49.552;7.632;2023-09-19T15:57:26;22.50;96.80
16060;DHT22;8134;49.552;7.632;2023-09-19T16:05:54;22.40;97.50
16060;DHT22;8134;49.552;7.632;2023-09-19T16:08:46;22.30;97.60
16060;DHT22;8134;49.552;7.632;2023-09-19T16:14:14;22.10;98.40
16060;DHT22;8134;49.552;7.632;2023-09-19T16:26:08;22.20;98.90
16060;DHT22;8134;49.552;7.632;2023-09-19T16:28:35;22.30;98.20
16060;DHT22;8134;49.552;7.632;2023-09-19T16:31:02;22.30;98.60
16060;DHT22;8134;49.552;7.632;2023-09-19T16:33:28;22.30;98.90
16060;DHT22;8134;49.552;7.632;2023-09-19T16:35:53;22.20;98.50
16060;DHT22;8134;49.552;7.632;2023-09-19T16:38:19;22.10;98.10
16060;DHT22;8134;49.552;7.632;2023-09-19T16:40:57;22.00;98.90
16060;DHT22;8134;49.552;7.632;2023-09-19T16:43:28;21.90;98.70
16060;DHT22;8134;49.552;7.632;2023-09-19T16:45:54;21.90;99.10
16060;DHT22;8134;49.552;7.632;2023-09-19T16:48:21;21.80;99.10
16060;DHT22;8134;49.552;7.632;2023-09-19T16:50:48;21.80;99.10
16060;DHT22;8134;49.552;7.632;2023-09-19T16:53:13;21.70;98.90
16060;DHT22;8134;49.552;7.632;2023-09-19T16:55:39;21.70;98.90
16060;DHT22;8134;49.552;7.632;2023-09-19T16:58:14;21.60;98.80
16060;DHT22;8134;49.552;7.632;2023-09-19T17:00:40;21.60;99.70
16060;DHT22;8134;49.552;7.632;2023-09-19T17:03:06;21.60;99.90
16060;DHT22;8134;49.552;7.632;2023-09-19T17:05:38;21.50;99.90
16060;DHT22;8134;49.552;7.632;2023-09-19T17:08:07;21.50;99.90
16060;DHT22;8134;49.552;7.632;2023-09-19T17:10:36;21.30;99.90
16060;DHT22;8134;49.552;7.632;2023-09-19T17:13:02;21.20;99.90
16060;DHT22;8134;49.552;7.632;2023-09-19T17:15:31;21.10;99.90
16060;DHT22;8134;49.552;7.632;2023-09-19T17:17:57;20.90;99.90
16060;DHT22;8134;49.552;7.632;2023-09-19T17:20:23;20.90;99.90
16060;DHT22;8134;49.552;7.632;2023-09-19T17:22:48;20.70;99.90
16060;DHT22;8134;49.552;7.632;2023-09-19T17:25:17;20.70;99.90
16060;DHT22;8134;49.552;7.632;2023-09-19T17:27:43;20.50;99.90
16060;DHT22;8134;49.552;7.632;2023-09-19T17:30:09;20.40;99.90
16060;DHT22;8134;49.552;7.632;2023-09-19T17:32:36;20.30;99.90
16060;DHT22;8134;49.552;7.632;2023-09-19T17:35:02;20.30;99.90
16060;DHT22;8134;49.552;7.632;2023-09-19T17:37:28;20.20;99.90
16060;DHT22;8134;49.552;7.632;2023-09-19T17:39:54;20.10;99.90
16060;DHT22;8134;49.552;7.632;2023-09-19T17:42:19;20.10;99.90